createdAt,value
2019-01-05T00:01:05.701Z,80.17
2019-01-05T00:02:30.136Z,80.19
2019-01-05T00:04:00.260Z,80.17
2019-01-05T00:05:26.252Z,80.17
2019-01-05T00:07:02.524Z,80.09
2019-01-05T00:08:25.058Z,80.09
2019-01-05T00:10:04.883Z,80.15
2019-01-05T00:11:41.316Z,80.14
2019-01-05T00:13:15.411Z,80.16
2019-01-05T00:14:57.419Z,80.28
2019-01-05T00:16:20.291Z,80.39
2019-01-05T00:17:43.164Z,80.54
2019-01-05T00:19:05.875Z,80.60
2019-01-05T00:20:30.054Z,80.56
2019-01-05T00:21:52.467Z,80.64
2019-01-05T00:23:19.354Z,80.62
2019-01-05T00:24:41.587Z,80.66
2019-01-05T00:26:16.994Z,80.71
2019-01-05T00:27:40.000Z,80.71
2019-01-05T00:28:57.414Z,80.64
2019-01-05T00:30:29.914Z,80.68
2019-01-05T00:32:03.189Z,80.67
2019-01-05T00:33:29.538Z,80.70
2019-01-05T00:34:57.667Z,80.70
2019-01-05T00:36:24.148Z,80.77
2019-01-05T00:37:52.110Z,80.80
2019-01-05T00:39:12.018Z,80.76
2019-01-05T00:40:42.494Z,80.77
2019-01-05T00:42:07.688Z,80.84
2019-01-05T00:43:34.116Z,81.03
2019-01-05T00:45:02.182Z,81.07
2019-01-05T00:46:24.004Z,81.06
2019-01-05T00:47:56.707Z,81.10
2019-01-05T00:49:26.869Z,81.14
2019-01-05T00:50:55.451Z,81.23
2019-01-05T00:52:20.659Z,81.10
2019-01-05T00:53:56.781Z,81.09
2019-01-05T00:55:25.893Z,81.25
2019-01-05T00:56:48.746Z,81.41
2019-01-05T00:58:11.463Z,81.48
2019-01-05T00:59:35.032Z,81.42
2019-01-05T01:01:03.589Z,81.47
2019-01-05T01:02:27.723Z,81.54
2019-01-05T01:03:45.803Z,81.58
2019-01-05T01:05:10.013Z,81.74
2019-01-05T01:06:52.315Z,81.77
2019-01-05T01:08:11.438Z,81.74
2019-01-05T01:09:50.962Z,81.72
2019-01-05T01:11:13.419Z,81.77
2019-01-05T01:12:35.993Z,81.71
2019-01-05T01:13:49.379Z,81.68
2019-01-05T01:15:28.026Z,81.68
2019-01-05T01:16:57.390Z,81.67
2019-01-05T01:18:20.322Z,81.63
2019-01-05T01:19:43.165Z,81.66
2019-01-05T01:21:13.367Z,81.66
2019-01-05T01:22:36.324Z,81.67
2019-01-05T01:23:59.756Z,81.71
2019-01-05T01:25:24.659Z,81.60
2019-01-05T01:26:50.142Z,81.60
2019-01-05T01:28:13.477Z,81.63
2019-01-05T01:29:36.121Z,81.77
2019-01-05T01:31:07.501Z,81.71
2019-01-05T01:32:29.995Z,81.73
2019-01-05T01:34:04.112Z,81.90
2019-01-05T01:35:29.196Z,81.98
2019-01-05T01:36:44.361Z,82.04
2019-01-05T01:38:35.046Z,82.01
2019-01-05T01:39:59.706Z,82.11
2019-01-05T01:41:25.218Z,82.16
2019-01-05T01:42:46.046Z,82.20
2019-01-05T01:44:11.921Z,82.39
2019-01-05T01:45:36.358Z,82.46
2019-01-05T01:47:07.545Z,82.51
2019-01-05T01:48:34.080Z,82.51
2019-01-05T01:50:09.252Z,82.56
2019-01-05T01:51:33.598Z,82.53
2019-01-05T01:52:59.193Z,82.52
2019-01-05T01:54:32.481Z,82.62
2019-01-05T01:56:04.127Z,82.67
2019-01-05T01:57:27.768Z,82.73
2019-01-05T01:59:03.518Z,82.70
2019-01-05T02:00:30.768Z,82.67
2019-01-05T02:01:55.864Z,82.52
2019-01-05T02:03:12.112Z,82.64
2019-01-05T02:04:34.983Z,82.72
2019-01-05T02:06:02.273Z,82.65
2019-01-05T02:07:32.904Z,82.70
2019-01-05T02:09:08.143Z,82.70
2019-01-05T02:10:44.755Z,82.71
2019-01-05T02:12:07.915Z,82.75
2019-01-05T02:13:49.343Z,82.70
2019-01-05T02:15:16.793Z,82.70
2019-01-05T02:16:44.625Z,82.69
2019-01-05T02:18:18.673Z,82.74
2019-01-05T02:20:02.732Z,82.77
2019-01-05T02:21:42.057Z,82.73
2019-01-05T02:24:04.162Z,82.64
2019-01-05T02:25:57.974Z,82.61
2019-01-05T02:28:08.566Z,82.67
2019-01-05T02:30:06.150Z,82.72
2019-01-05T02:31:55.231Z,82.67
2019-01-05T02:33:52.741Z,82.62
2019-01-05T02:35:56.969Z,82.77
2019-01-05T02:37:47.618Z,82.93
2019-01-05T02:39:38.945Z,83.02
2019-01-05T02:41:46.862Z,83.07
2019-01-05T02:44:01.315Z,83.14
2019-01-05T02:46:16.174Z,83.17
2019-01-05T02:48:37.036Z,83.13
2019-01-05T02:50:58.495Z,83.12
2019-01-05T02:52:50.414Z,83.10
2019-01-05T02:54:44.432Z,83.02
2019-01-05T02:56:48.189Z,82.97
2019-01-05T02:58:48.447Z,82.96
2019-01-05T03:00:58.883Z,82.89
2019-01-05T03:02:45.924Z,82.90
2019-01-05T03:04:44.359Z,83.03
2019-01-05T03:07:28.509Z,83.00
2019-01-05T03:09:33.679Z,82.96
2019-01-05T03:11:50.032Z,83.02
2019-01-05T03:13:58.226Z,82.97
2019-01-05T03:15:38.134Z,83.00
2019-01-05T03:17:51.855Z,83.11
2019-01-05T03:19:47.138Z,83.26
2019-01-05T03:22:01.231Z,83.24
2019-01-05T03:24:12.986Z,83.16
2019-01-05T03:26:19.235Z,83.14
2019-01-05T03:28:20.103Z,83.17
2019-01-05T03:30:12.324Z,83.29
2019-01-05T03:32:24.594Z,83.43
2019-01-05T03:34:07.415Z,83.53
2019-01-05T03:36:38.326Z,83.65
2019-01-05T03:38:53.582Z,83.67
2019-01-05T03:40:54.861Z,83.65
2019-01-05T03:43:07.189Z,83.72
2019-01-05T03:45:05.692Z,83.88
2019-01-05T03:46:54.095Z,83.93
2019-01-05T03:49:11.256Z,83.91
2019-01-05T03:51:18.709Z,83.83
2019-01-05T03:53:18.096Z,83.84
2019-01-05T03:55:40.954Z,83.91
2019-01-05T03:57:35.740Z,84.06
2019-01-05T03:59:27.254Z,84.13
2019-01-05T04:01:46.482Z,84.20
2019-01-05T04:03:48.722Z,84.27
2019-01-05T04:05:56.957Z,84.40
2019-01-05T04:08:25.766Z,84.33
2019-01-05T04:10:24.984Z,84.48
2019-01-05T04:12:23.076Z,84.60
2019-01-05T04:14:23.324Z,84.66
2019-01-05T04:16:20.470Z,84.73
2019-01-05T04:18:37.826Z,84.75
2019-01-05T04:20:40.572Z,84.74
2019-01-05T04:23:12.579Z,84.82
2019-01-05T04:25:29.138Z,84.96
2019-01-05T04:27:45.365Z,85.03
2019-01-05T04:29:45.138Z,85.03
2019-01-05T04:31:39.039Z,85.16
2019-01-05T04:33:50.425Z,85.23
2019-01-05T04:35:54.001Z,85.23
2019-01-05T04:37:56.869Z,85.34
2019-01-05T04:39:44.702Z,85.38
2019-01-05T04:41:44.173Z,85.39
2019-01-05T04:44:09.061Z,85.48
2019-01-05T04:46:27.071Z,85.45
2019-01-05T04:48:40.843Z,85.61
2019-01-05T04:50:40.131Z,85.72
2019-01-05T04:52:54.503Z,85.73
2019-01-05T04:55:13.003Z,85.91
2019-01-05T04:57:18.548Z,85.95
2019-01-05T04:59:16.509Z,86.00
2019-01-05T05:01:18.917Z,86.17
2019-01-05T05:03:34.503Z,86.14
2019-01-05T05:05:23.756Z,86.24
2019-01-05T05:07:07.141Z,86.20
2019-01-05T05:09:21.557Z,86.27
2019-01-05T05:11:24.993Z,86.35
2019-01-05T05:13:46.004Z,86.38
2019-01-05T05:15:44.689Z,86.41
2019-01-05T05:17:36.138Z,86.44
2019-01-05T05:19:48.026Z,86.37
2019-01-05T05:21:54.044Z,86.47
2019-01-05T05:23:50.169Z,86.41
2019-01-05T05:25:38.649Z,86.46
2019-01-05T05:27:56.144Z,86.46
2019-01-05T05:30:01.313Z,86.48
2019-01-05T05:32:00.062Z,86.53
2019-01-05T05:34:10.088Z,86.57
2019-01-05T05:36:19.336Z,86.68
2019-01-05T05:38:41.083Z,86.71
2019-01-05T05:40:55.418Z,86.58
2019-01-05T05:42:51.917Z,86.49
2019-01-05T05:44:53.352Z,86.52
2019-01-05T05:46:36.598Z,86.57
2019-01-05T05:48:40.798Z,86.60
2019-01-05T05:51:03.131Z,86.65
2019-01-05T05:53:17.661Z,86.74
2019-01-05T05:55:13.496Z,86.73
2019-01-05T05:57:14.718Z,86.82
2019-01-05T05:59:25.035Z,86.72
2019-01-05T06:01:24.424Z,86.76
2019-01-05T06:03:03.362Z,86.84
2019-01-05T06:05:11.453Z,86.90
2019-01-05T06:06:46.686Z,86.93
2019-01-05T06:08:53.880Z,86.90
2019-01-05T06:10:53.365Z,86.95
2019-01-05T06:12:51.670Z,86.90
2019-01-05T06:14:39.117Z,86.86
2019-01-05T06:16:44.584Z,86.86
2019-01-05T06:18:42.909Z,86.82
2019-01-05T06:20:25.985Z,86.70
2019-01-05T06:22:17.487Z,86.73
2019-01-05T06:24:11.713Z,86.74
2019-01-05T06:26:14.521Z,86.74
2019-01-05T06:28:14.197Z,86.66
2019-01-05T06:30:27.585Z,86.63
2019-01-05T06:32:33.207Z,86.68
2019-01-05T06:34:22.802Z,86.76
2019-01-05T06:36:54.820Z,86.86
2019-01-05T06:39:29.064Z,86.76
2019-01-05T06:41:57.346Z,86.67
2019-01-05T06:44:30.023Z,86.74
2019-01-05T06:46:41.116Z,86.78
2019-01-05T06:48:52.567Z,86.83
2019-01-05T06:51:05.620Z,86.79
2019-01-05T06:53:22.428Z,86.84
2019-01-05T06:55:23.169Z,86.77
2019-01-05T06:57:21.177Z,86.73
2019-01-05T06:59:25.029Z,86.75
2019-01-05T07:01:31.481Z,86.63
2019-01-05T07:03:42.103Z,86.67
2019-01-05T07:06:00.335Z,86.73
2019-01-05T07:08:16.541Z,86.73
2019-01-05T07:10:20.404Z,86.54
2019-01-05T07:12:16.100Z,86.47
2019-01-05T07:14:26.333Z,86.29
2019-01-05T07:16:16.115Z,86.30
2019-01-05T07:18:38.244Z,86.31
2019-01-05T07:20:27.608Z,86.43
2019-01-05T07:22:18.422Z,86.35
2019-01-05T07:24:46.629Z,86.32
2019-01-05T07:26:47.931Z,86.23
2019-01-05T07:28:53.150Z,85.92
2019-01-05T07:30:58.711Z,86.01
2019-01-05T07:32:35.409Z,85.90
2019-01-05T07:34:54.044Z,85.68
2019-01-05T07:37:06.228Z,85.70
2019-01-05T07:39:21.740Z,85.59
2019-01-05T07:41:19.776Z,85.61
2019-01-05T07:43:29.903Z,85.58
2019-01-05T07:45:35.134Z,85.69
2019-01-05T07:47:36.572Z,85.41
2019-01-05T07:49:31.086Z,85.40
2019-01-05T07:51:48.308Z,85.44
2019-01-05T07:54:09.958Z,85.33
2019-01-05T07:56:20.758Z,85.40
2019-01-05T07:58:08.387Z,85.27
2019-01-05T08:00:36.091Z,85.30
2019-01-05T08:02:38.288Z,85.28
2019-01-05T08:04:22.796Z,85.38
2019-01-05T08:06:25.373Z,85.64
2019-01-05T08:08:35.945Z,85.58
2019-01-05T08:10:42.911Z,85.53
2019-01-05T08:12:27.358Z,85.48
2019-01-05T08:14:15.781Z,85.52
2019-01-05T08:16:24.233Z,85.62
2019-01-05T08:18:36.562Z,85.67
2019-01-05T08:20:37.727Z,85.81
2019-01-05T08:22:47.669Z,85.79
2019-01-05T08:24:54.992Z,85.85
2019-01-05T08:27:08.415Z,85.90
2019-01-05T08:29:24.644Z,85.83
2019-01-05T08:31:32.786Z,85.59
2019-01-05T08:33:28.991Z,85.73
2019-01-05T08:35:33.954Z,85.57
2019-01-05T08:37:52.408Z,85.50
2019-01-05T08:39:55.088Z,85.41
2019-01-05T08:41:54.263Z,85.52
2019-01-05T08:44:09.824Z,85.49
2019-01-05T08:46:14.658Z,85.44
2019-01-05T08:48:07.524Z,85.42
2019-01-05T08:50:45.714Z,85.44
2019-01-05T08:52:47.643Z,85.57
2019-01-05T08:54:28.822Z,85.50
2019-01-05T08:56:30.988Z,85.73
2019-01-05T08:58:40.387Z,85.72
2019-01-05T09:00:48.560Z,85.70
2019-01-05T09:02:46.744Z,85.90
2019-01-05T09:04:46.105Z,86.01
2019-01-05T09:06:46.826Z,85.91
2019-01-05T09:08:57.093Z,85.83
2019-01-05T09:11:12.298Z,86.02
2019-01-05T09:13:14.373Z,86.06
2019-01-05T09:15:31.647Z,86.18
2019-01-05T09:17:23.208Z,86.23
2019-01-05T09:19:20.247Z,86.11
2019-01-05T09:21:36.043Z,86.30
2019-01-05T09:23:41.679Z,86.19
2019-01-05T09:25:38.098Z,86.12
2019-01-05T09:27:37.481Z,86.27
2019-01-05T09:29:50.458Z,86.17
2019-01-05T09:32:03.355Z,86.18
2019-01-05T09:33:57.923Z,86.07
2019-01-05T09:35:53.510Z,85.94
2019-01-05T09:37:51.936Z,86.05
2019-01-05T09:39:49.768Z,86.12
2019-01-05T09:42:00.284Z,85.89
2019-01-05T09:44:12.866Z,85.98
2019-01-05T09:46:22.345Z,85.93
2019-01-05T09:48:29.139Z,86.08
2019-01-05T09:50:31.130Z,86.12
2019-01-05T09:52:35.007Z,86.10
2019-01-05T09:54:49.220Z,86.29
2019-01-05T09:57:03.388Z,86.36
2019-01-05T09:59:08.405Z,86.28
2019-01-05T10:01:16.799Z,86.22
2019-01-05T10:03:26.172Z,86.31
2019-01-05T10:05:11.424Z,86.18
2019-01-05T10:07:21.669Z,86.07
2019-01-05T10:09:16.195Z,86.24
2019-01-05T10:11:15.552Z,86.35
2019-01-05T10:13:09.384Z,86.08
2019-01-05T10:15:35.834Z,85.93
2019-01-05T10:17:52.833Z,86.11
2019-01-05T10:19:59.562Z,85.98
2019-01-05T10:22:07.567Z,86.09
2019-01-05T10:24:22.969Z,86.19
2019-01-05T10:26:24.353Z,86.25
2019-01-05T10:28:35.904Z,86.15
2019-01-05T10:30:45.262Z,86.21
2019-01-05T10:32:46.173Z,86.24
2019-01-05T10:35:04.753Z,86.39
2019-01-05T10:37:04.211Z,86.23
2019-01-05T10:39:06.615Z,86.29
2019-01-05T10:40:49.710Z,85.81
2019-01-05T10:42:51.906Z,86.15
2019-01-05T10:44:56.712Z,86.32
2019-01-05T10:46:53.807Z,85.96
2019-01-05T10:49:10.011Z,85.86
2019-01-05T10:51:24.744Z,85.97
2019-01-05T10:53:25.140Z,86.17
2019-01-05T10:55:47.793Z,85.88
2019-01-05T10:57:54.568Z,85.81
2019-01-05T11:00:01.752Z,85.57
2019-01-05T11:02:02.805Z,85.63
2019-01-05T11:04:04.675Z,85.67
2019-01-05T11:06:03.786Z,85.79
2019-01-05T11:08:16.352Z,85.63
2019-01-05T11:10:26.387Z,85.77
2019-01-05T11:12:55.983Z,85.58
2019-01-05T11:15:01.449Z,85.56
2019-01-05T11:16:56.817Z,85.57
2019-01-05T11:18:57.661Z,85.65
2019-01-05T11:20:37.794Z,85.71
2019-01-05T11:22:35.608Z,85.94
2019-01-05T11:24:42.202Z,85.80
2019-01-05T11:26:40.411Z,85.75
2019-01-05T11:28:50.244Z,85.67
2019-01-05T11:31:07.685Z,85.68
2019-01-05T11:33:15.529Z,85.69
2019-01-05T11:35:01.943Z,85.62
2019-01-05T11:37:07.930Z,85.81
2019-01-05T11:39:21.980Z,85.85
2019-01-05T11:41:27.560Z,85.69
2019-01-05T11:43:20.271Z,85.57
2019-01-05T11:45:11.780Z,85.62
2019-01-05T11:47:25.021Z,85.58
2019-01-05T11:49:14.961Z,85.46
2019-01-05T11:51:12.782Z,85.41
2019-01-05T11:53:11.043Z,85.36
2019-01-05T11:54:53.237Z,85.23
2019-01-05T11:57:07.166Z,85.27
2019-01-05T11:59:22.828Z,85.40
2019-01-05T12:01:26.276Z,85.43
2019-01-05T12:03:34.649Z,85.52
2019-01-05T12:05:34.975Z,85.46
2019-01-05T12:07:38.628Z,85.49
2019-01-05T12:09:41.115Z,85.36
2019-01-05T12:11:35.685Z,85.38
2019-01-05T12:13:49.242Z,85.34
2019-01-05T12:15:47.118Z,85.25
2019-01-05T12:18:08.265Z,85.20
2019-01-05T12:19:52.349Z,85.24
2019-01-05T12:22:00.589Z,85.29
2019-01-05T12:24:18.563Z,85.16
2019-01-05T12:26:29.912Z,85.26
2019-01-05T12:28:41.000Z,85.39
2019-01-05T12:30:40.514Z,85.45
2019-01-05T12:32:52.898Z,85.40
2019-01-05T12:35:01.211Z,85.50
2019-01-05T12:36:59.497Z,85.39
2019-01-05T12:39:01.653Z,85.40
2019-01-05T12:40:58.317Z,85.50
2019-01-05T12:42:54.109Z,85.46
2019-01-05T12:45:01.618Z,85.53
2019-01-05T12:47:05.525Z,85.67
2019-01-05T12:48:56.157Z,85.67
2019-01-05T12:50:54.809Z,85.53
2019-01-05T12:52:53.955Z,85.58
2019-01-05T12:55:17.191Z,85.51
2019-01-05T12:57:18.281Z,85.31
2019-01-05T12:59:04.966Z,85.44
2019-01-05T13:00:57.687Z,85.56
2019-01-05T13:03:19.568Z,85.51
2019-01-05T13:05:10.530Z,85.23
2019-01-05T13:07:23.010Z,85.38
2019-01-05T13:09:33.694Z,85.46
2019-01-05T13:12:11.544Z,85.63
2019-01-05T13:14:09.690Z,85.37
2019-01-05T13:16:12.780Z,85.28
2019-01-05T13:18:16.483Z,85.27
2019-01-05T13:20:07.213Z,85.43
2019-01-05T13:22:20.339Z,85.44
2019-01-05T13:24:26.455Z,85.15
2019-01-05T13:26:24.682Z,84.93
2019-01-05T13:28:34.483Z,85.00
2019-01-05T13:30:48.689Z,84.97
2019-01-05T13:32:52.194Z,85.02
2019-01-05T13:35:13.814Z,85.12
2019-01-05T13:37:13.842Z,85.19
2019-01-05T13:39:09.232Z,84.84
2019-01-05T13:41:27.840Z,84.90
2019-01-05T13:43:36.403Z,84.80
2019-01-05T13:45:27.579Z,84.72
2019-01-05T13:47:20.350Z,84.51
2019-01-05T13:49:34.755Z,84.42
2019-01-05T13:51:35.310Z,84.16
2019-01-05T13:53:19.366Z,84.17
2019-01-05T13:54:42.106Z,84.10
2019-01-05T13:56:32.552Z,84.10
2019-01-05T13:57:56.997Z,84.35
2019-01-05T13:59:18.088Z,84.47
2019-01-05T14:00:44.253Z,84.31
2019-01-05T14:02:27.240Z,84.16
2019-01-05T14:03:58.843Z,84.29
2019-01-05T14:05:33.191Z,84.38
2019-01-05T14:06:53.946Z,84.29
2019-01-05T14:08:14.711Z,83.95
2019-01-05T14:09:37.040Z,84.20
2019-01-05T14:11:13.052Z,84.36
2019-01-05T14:12:35.479Z,84.20
2019-01-05T14:13:56.808Z,84.17
2019-01-05T14:15:35.811Z,83.96
2019-01-05T14:16:58.481Z,83.96
2019-01-05T14:18:16.805Z,84.02
2019-01-05T14:19:40.816Z,83.91
2019-01-05T14:21:05.081Z,83.82
2019-01-05T14:22:46.822Z,83.83
2019-01-05T14:24:09.157Z,83.88
2019-01-05T14:25:42.952Z,83.79
2019-01-05T14:27:25.114Z,84.04
2019-01-05T14:28:47.518Z,84.17
2019-01-05T14:30:14.222Z,83.93
2019-01-05T14:31:41.239Z,83.98
2019-01-05T14:33:08.354Z,83.87
2019-01-05T14:34:30.922Z,83.96
2019-01-05T14:35:54.210Z,83.88
2019-01-05T14:37:06.991Z,84.05
2019-01-05T14:38:36.879Z,84.13
2019-01-05T14:39:59.511Z,83.77
2019-01-05T14:41:13.659Z,83.96
2019-01-05T14:42:36.217Z,84.11
2019-01-05T14:44:02.645Z,84.17
2019-01-05T14:45:27.622Z,84.20
2019-01-05T14:46:54.341Z,84.04
2019-01-05T14:48:18.375Z,84.12
2019-01-05T14:49:41.564Z,84.11
2019-01-05T14:51:11.759Z,84.05
2019-01-05T14:52:28.623Z,83.99
2019-01-05T14:53:54.388Z,83.88
2019-01-05T14:55:18.609Z,83.91
2019-01-05T14:56:41.747Z,84.08
2019-01-05T14:58:13.259Z,84.20
2019-01-05T14:59:38.887Z,84.21
2019-01-05T15:00:56.348Z,84.06
2019-01-05T15:02:18.871Z,83.99
2019-01-05T15:03:49.271Z,84.02
2019-01-05T15:05:19.432Z,83.98
2019-01-05T15:06:42.507Z,84.11
2019-01-05T15:08:18.545Z,84.13
2019-01-05T15:09:38.955Z,84.27
2019-01-05T15:11:01.267Z,84.28
2019-01-05T15:12:40.204Z,84.04
2019-01-05T15:14:10.612Z,83.76
2019-01-05T15:15:33.168Z,83.77
2019-01-05T15:17:09.710Z,83.85
2019-01-05T15:18:42.596Z,83.92
2019-01-05T15:20:05.440Z,84.08
2019-01-05T15:21:30.931Z,83.98
2019-01-05T15:23:06.993Z,83.89
2019-01-05T15:24:29.430Z,83.89
2019-01-05T15:25:52.108Z,83.93
2019-01-05T15:27:16.123Z,83.87
2019-01-05T15:28:38.257Z,83.74
2019-01-05T15:30:01.316Z,83.58
2019-01-05T15:31:33.393Z,83.55
2019-01-05T15:33:00.163Z,83.64
2019-01-05T15:34:25.874Z,83.77
2019-01-05T15:36:01.858Z,83.68
2019-01-05T15:37:25.842Z,83.74
2019-01-05T15:38:52.675Z,83.88
2019-01-05T15:40:15.335Z,84.01
2019-01-05T15:41:57.356Z,84.00
2019-01-05T15:43:26.957Z,83.86
2019-01-05T15:44:49.162Z,83.79
2019-01-05T15:46:13.140Z,83.69
2019-01-05T15:47:35.685Z,83.80
2019-01-05T15:49:08.447Z,83.84
2019-01-05T15:50:38.670Z,83.83
2019-01-05T15:52:00.701Z,83.91
2019-01-05T15:53:31.021Z,83.97
2019-01-05T15:54:55.025Z,84.01
2019-01-05T15:56:17.368Z,84.00
2019-01-05T15:57:47.422Z,83.86
2019-01-05T15:59:26.513Z,83.84
2019-01-05T16:00:58.820Z,83.86
2019-01-05T16:02:19.501Z,83.93
2019-01-05T16:04:01.389Z,83.93
2019-01-05T16:05:20.745Z,83.83
2019-01-05T16:06:47.422Z,83.82
2019-01-05T16:08:09.101Z,83.80
2019-01-05T16:09:32.195Z,83.86
2019-01-05T16:10:54.641Z,83.96
2019-01-05T16:12:24.575Z,84.08
2019-01-05T16:13:52.950Z,83.93
2019-01-05T16:15:12.251Z,83.94
2019-01-05T16:16:38.962Z,83.80
2019-01-05T16:18:06.603Z,83.68
2019-01-05T16:19:33.443Z,83.88
2019-01-05T16:21:03.633Z,83.82
2019-01-05T16:22:26.012Z,83.89
2019-01-05T16:24:07.893Z,84.04
2019-01-05T16:25:46.903Z,84.03
2019-01-05T16:27:29.092Z,84.06
2019-01-05T16:28:51.693Z,84.23
2019-01-05T16:30:10.521Z,84.28
2019-01-05T16:31:32.943Z,84.11
2019-01-05T16:32:55.371Z,84.12
2019-01-05T16:34:22.238Z,84.00
2019-01-05T16:35:49.292Z,84.08
2019-01-05T16:37:13.236Z,84.19
2019-01-05T16:38:35.846Z,84.18
2019-01-05T16:39:58.585Z,84.16
2019-01-05T16:41:32.084Z,84.09
2019-01-05T16:43:10.926Z,84.07
2019-01-05T16:44:33.555Z,84.18
2019-01-05T16:45:52.835Z,84.20
2019-01-05T16:47:15.227Z,84.12
2019-01-05T16:48:37.960Z,84.17
2019-01-05T16:50:00.269Z,84.26
2019-01-05T16:51:27.260Z,84.30
2019-01-05T16:52:49.622Z,84.40
2019-01-05T16:54:07.900Z,84.44
2019-01-05T16:55:34.837Z,84.45
2019-01-05T16:56:51.971Z,84.50
2019-01-05T16:58:19.252Z,84.60
2019-01-05T17:00:00.955Z,84.51
2019-01-05T17:01:42.984Z,84.35
2019-01-05T17:03:12.897Z,84.22
2019-01-05T17:04:56.124Z,84.22
2019-01-05T17:06:18.727Z,84.27
2019-01-05T17:07:51.549Z,84.37
2019-01-05T17:09:18.977Z,84.47
2019-01-05T17:10:38.836Z,84.60
2019-01-05T17:11:54.731Z,84.50
2019-01-05T17:13:17.752Z,84.53
2019-01-05T17:14:40.411Z,84.68
2019-01-05T17:16:19.764Z,84.61
2019-01-05T17:17:54.767Z,84.59
2019-01-05T17:19:14.148Z,84.54
2019-01-05T17:20:36.885Z,84.64
2019-01-05T17:21:59.501Z,84.65
2019-01-05T17:23:29.473Z,84.63
2019-01-05T17:25:11.342Z,84.56
2019-01-05T17:26:38.813Z,84.56
2019-01-05T17:28:02.765Z,84.64
2019-01-05T17:29:35.821Z,84.75
2019-01-05T17:31:02.425Z,84.74
2019-01-05T17:32:24.981Z,84.85
2019-01-05T17:33:56.800Z,84.59
2019-01-05T17:35:36.003Z,84.49
2019-01-05T17:37:00.171Z,84.48
2019-01-05T17:38:30.038Z,84.52
2019-01-05T17:39:52.467Z,84.73
2019-01-05T17:41:15.054Z,84.70
2019-01-05T17:42:33.182Z,84.78
2019-01-05T17:43:56.075Z,84.81
2019-01-05T17:45:14.513Z,84.76
2019-01-05T17:46:36.783Z,84.79
2019-01-05T17:48:01.138Z,84.69
2019-01-05T17:49:43.287Z,84.80
2019-01-05T17:51:13.139Z,84.93
2019-01-05T17:52:37.477Z,84.89
2019-01-05T17:54:11.271Z,85.09
2019-01-05T17:55:47.261Z,85.04
2019-01-05T17:57:09.685Z,84.74
2019-01-05T17:58:32.040Z,84.79
2019-01-05T18:00:01.134Z,84.74
2019-01-05T18:01:23.530Z,84.81
2019-01-05T18:02:50.338Z,84.83
2019-01-05T18:04:21.471Z,84.99
2019-01-05T18:05:43.821Z,85.02
2019-01-05T18:07:11.943Z,85.06
2019-01-05T18:08:41.934Z,84.82
2019-01-05T18:10:08.880Z,84.85
2019-01-05T18:11:47.031Z,84.90
2019-01-05T18:13:07.715Z,85.02
2019-01-05T18:14:41.779Z,85.03
2019-01-05T18:16:03.782Z,84.98
2019-01-05T18:17:26.212Z,84.82
2019-01-05T18:18:43.810Z,84.89
2019-01-05T18:20:06.715Z,84.98
2019-01-05T18:21:29.581Z,84.98
2019-01-05T18:22:53.803Z,84.99
2019-01-05T18:24:16.869Z,84.86
2019-01-05T18:25:49.973Z,84.76
2019-01-05T18:27:12.594Z,84.84
2019-01-05T18:28:39.308Z,84.75
2019-01-05T18:30:20.439Z,84.76
2019-01-05T18:31:43.028Z,84.83
2019-01-05T18:33:11.168Z,84.95
2019-01-05T18:34:33.981Z,85.07
2019-01-05T18:36:01.282Z,85.09
2019-01-05T18:37:28.615Z,85.07
2019-01-05T18:38:51.185Z,85.05
2019-01-05T18:40:21.611Z,85.00
2019-01-05T18:41:46.565Z,84.99
2019-01-05T18:43:08.918Z,85.05
2019-01-05T18:44:28.690Z,85.07
2019-01-05T18:45:45.330Z,85.12
2019-01-05T18:47:07.713Z,85.01
2019-01-05T18:48:27.944Z,84.93
2019-01-05T18:49:45.456Z,85.00
2019-01-05T18:51:04.530Z,84.99
2019-01-05T18:52:38.537Z,85.05
2019-01-05T18:54:01.397Z,84.93
2019-01-05T18:55:24.354Z,84.95
2019-01-05T18:56:54.143Z,85.02
2019-01-05T18:58:25.697Z,85.10
2019-01-05T18:59:48.732Z,85.08
2019-01-05T19:01:19.550Z,85.21
2019-01-05T19:02:46.528Z,85.27
2019-01-05T19:04:21.637Z,85.27
2019-01-05T19:05:46.614Z,85.12
2019-01-05T19:07:21.198Z,84.76
2019-01-05T19:08:49.086Z,84.56
2019-01-05T19:10:06.694Z,84.61
2019-01-05T19:11:37.789Z,84.65
2019-01-05T19:13:03.147Z,84.69
2019-01-05T19:14:30.431Z,84.78
2019-01-05T19:15:57.628Z,84.95
2019-01-05T19:17:26.455Z,85.00
2019-01-05T19:18:45.457Z,84.78
2019-01-05T19:20:09.430Z,84.76
2019-01-05T19:21:33.449Z,84.65
2019-01-05T19:23:06.757Z,84.84
2019-01-05T19:24:30.006Z,84.90
2019-01-05T19:26:06.122Z,84.94
2019-01-05T19:27:36.007Z,85.01
2019-01-05T19:28:58.630Z,84.92
2019-01-05T19:30:22.779Z,84.65
2019-01-05T19:31:44.364Z,84.74
2019-01-05T19:33:08.832Z,84.72
2019-01-05T19:34:31.260Z,84.82
2019-01-05T19:35:53.981Z,84.86
2019-01-05T19:37:17.424Z,84.80
2019-01-05T19:38:52.155Z,84.74
2019-01-05T19:40:21.900Z,84.90
2019-01-05T19:41:46.062Z,84.89
2019-01-05T19:43:08.605Z,84.78
2019-01-05T19:44:30.924Z,84.94
2019-01-05T19:45:53.917Z,85.02
2019-01-05T19:47:16.332Z,85.08
2019-01-05T19:48:50.370Z,84.89
2019-01-05T19:50:17.706Z,84.94
2019-01-05T19:51:47.691Z,85.03
2019-01-05T19:53:11.118Z,85.15
2019-01-05T19:54:39.118Z,84.97
2019-01-05T19:56:09.227Z,84.95
2019-01-05T19:57:35.916Z,85.11
2019-01-05T19:58:58.601Z,85.01
2019-01-05T20:00:24.240Z,84.86
2019-01-05T20:02:00.018Z,84.83
2019-01-05T20:03:22.802Z,84.85
2019-01-05T20:04:46.742Z,84.90
2019-01-05T20:06:06.502Z,84.89
2019-01-05T20:07:29.271Z,84.95
2019-01-05T20:09:08.277Z,85.07
2019-01-05T20:10:35.912Z,85.06
2019-01-05T20:11:58.339Z,85.07
2019-01-05T20:13:21.019Z,84.99
2019-01-05T20:14:51.230Z,85.00
2019-01-05T20:16:13.776Z,85.23
2019-01-05T20:17:37.961Z,85.20
2019-01-05T20:19:02.840Z,85.10
2019-01-05T20:20:25.372Z,85.13
2019-01-05T20:21:47.831Z,85.12
2019-01-05T20:23:17.798Z,85.10
2019-01-05T20:24:40.230Z,85.13
2019-01-05T20:26:03.233Z,84.97
2019-01-05T20:27:33.441Z,85.09
2019-01-05T20:29:02.047Z,85.09
2019-01-05T20:30:23.095Z,85.12
2019-01-05T20:31:45.913Z,85.18
2019-01-05T20:33:27.784Z,85.21
2019-01-05T20:34:46.984Z,85.13
2019-01-05T20:36:16.682Z,85.01
2019-01-05T20:37:39.241Z,84.95
2019-01-05T20:38:57.567Z,84.95
2019-01-05T20:40:34.287Z,85.10
2019-01-05T20:42:03.928Z,85.06
2019-01-05T20:43:26.639Z,84.92
2019-01-05T20:44:49.186Z,84.85
2019-01-05T20:46:11.667Z,84.81
2019-01-05T20:47:45.223Z,84.84
2019-01-05T20:49:07.801Z,84.95
2019-01-05T20:50:39.253Z,84.97
2019-01-05T20:52:12.312Z,85.04
2019-01-05T20:53:48.024Z,85.11
2019-01-05T20:55:10.525Z,85.07
2019-01-05T20:56:33.752Z,85.01
2019-01-05T20:58:03.852Z,84.78
2019-01-05T20:59:33.819Z,84.81
2019-01-05T21:00:56.378Z,84.88
2019-01-05T21:02:14.133Z,84.93
2019-01-05T21:03:44.233Z,85.00
2019-01-05T21:05:10.788Z,85.07
2019-01-05T21:06:34.888Z,84.88
2019-01-05T21:07:57.252Z,84.97
2019-01-05T21:09:19.663Z,84.94
2019-01-05T21:10:42.369Z,84.87
2019-01-05T21:12:05.910Z,84.86
2019-01-05T21:13:28.990Z,84.90
2019-01-05T21:14:51.660Z,84.92
2019-01-05T21:16:14.812Z,84.71
2019-01-05T21:17:43.353Z,84.67
2019-01-05T21:19:26.034Z,84.79
2019-01-05T21:20:48.900Z,84.93
2019-01-05T21:22:10.600Z,85.11
2019-01-05T21:23:33.106Z,85.12
2019-01-05T21:24:55.521Z,85.12
2019-01-05T21:26:11.444Z,85.03
2019-01-05T21:27:33.883Z,85.08
2019-01-05T21:29:03.044Z,85.09
2019-01-05T21:30:26.427Z,85.15
2019-01-05T21:31:48.811Z,85.06
2019-01-05T21:33:11.505Z,85.21
2019-01-05T21:34:50.270Z,85.17
2019-01-05T21:36:13.212Z,85.01
2019-01-05T21:37:29.200Z,84.99
2019-01-05T21:38:55.419Z,85.21
2019-01-05T21:40:18.370Z,85.24
2019-01-05T21:41:41.092Z,85.26
2019-01-05T21:43:14.129Z,85.23
2019-01-05T21:44:30.695Z,85.00
2019-01-05T21:45:55.754Z,84.99
2019-01-05T21:47:18.185Z,85.06
2019-01-05T21:48:41.018Z,85.07
2019-01-05T21:50:08.586Z,84.86
2019-01-05T21:51:43.383Z,84.90
2019-01-05T21:53:03.742Z,84.87
2019-01-05T21:54:27.835Z,84.91
2019-01-05T21:55:57.697Z,84.82
2019-01-05T21:57:39.685Z,84.83
2019-01-05T21:59:04.195Z,85.03
2019-01-05T22:00:28.798Z,85.09
2019-01-05T22:01:45.009Z,84.95
2019-01-05T22:03:15.098Z,84.97
2019-01-05T22:04:37.790Z,84.92
2019-01-05T22:06:00.677Z,84.91
2019-01-05T22:07:24.863Z,84.91
2019-01-05T22:08:45.852Z,84.87